RYR395 LMML-LICC
Flight info
| Callsign | RYR395 |
|---|---|
| Flight time | 0h 31m |
| Altitude | 12000 |
| Route | GZO N982 DIRKA/N0366F140 N982 NELDA |
| Aircraft | B38M/M-SDE1FGHILORVWXY/HB1 |
Departure
| Time | 2026-05-07 16:12 |
|---|---|
| Airport | Malta International Airport (LMML) |
Arrival
| Time | 2026-05-07 16:43 |
|---|---|
| Airport | Catania-Fontanarossa Airport (LICC) |
| Time | Latitude | Longitude | Altitude | Speed | Heading |
|---|---|---|---|---|---|
| 2026-05-07 16:05 | 35.85157 | 14.48707 | 261 ft | 15 kts | 330° |
| 2026-05-07 16:06 | 35.85218 | 14.48697 | 261 ft | 14 kts | 348° |
| 2026-05-07 16:06 | 35.85273 | 14.48657 | 261 ft | 14 kts | 308° |
| 2026-05-07 16:06 | 35.85332 | 14.48564 | 262 ft | 14 kts | 297° |
| 2026-05-07 16:06 | 35.85397 | 14.48467 | 262 ft | 15 kts | 313° |
| 2026-05-07 16:07 | 35.85474 | 14.48368 | 263 ft | 17 kts | 313° |
| 2026-05-07 16:07 | 35.85560 | 14.48263 | 264 ft | 18 kts | 317° |
| 2026-05-07 16:07 | 35.85676 | 14.48203 | 263 ft | 19 kts | 351° |
| 2026-05-07 16:07 | 35.85811 | 14.48177 | 260 ft | 17 kts | 351° |
| 2026-05-07 16:08 | 35.85861 | 14.48166 | 259 ft | 0 kts | 350° |
| 2026-05-07 16:09 | 35.85862 | 14.48166 | 259 ft | 2 kts | 350° |
| 2026-05-07 16:09 | 35.85905 | 14.48158 | 258 ft | 12 kts | 352° |
| 2026-05-07 16:10 | 35.85970 | 14.48114 | 258 ft | 0 kts | 244° |
| 2026-05-07 16:10 | 35.85969 | 14.48114 | 258 ft | 0 kts | 237° |
| 2026-05-07 16:11 | 35.85808 | 14.47834 | 266 ft | 81 kts | 234° |
| 2026-05-07 16:11 | 35.85343 | 14.47031 | 288 ft | 149 kts | 235° |
| 2026-05-07 16:11 | 35.84716 | 14.45946 | 782 ft | 164 kts | 236° |
| 2026-05-07 16:12 | 35.84058 | 14.44774 | 1597 ft | 165 kts | 235° |
| 2026-05-07 16:12 | 35.83379 | 14.43595 | 2452 ft | 170 kts | 234° |
| 2026-05-07 16:12 | 35.82652 | 14.42352 | 3105 ft | 193 kts | 235° |
| 2026-05-07 16:12 | 35.81809 | 14.40875 | 3504 ft | 226 kts | 236° |
| 2026-05-07 16:13 | 35.80850 | 14.39194 | 4086 ft | 252 kts | 237° |
| 2026-05-07 16:13 | 35.80147 | 14.37206 | 5045 ft | 255 kts | 262° |
| 2026-05-07 16:13 | 35.80341 | 14.35092 | 6223 ft | 258 kts | 289° |
| 2026-05-07 16:13 | 35.81396 | 14.33260 | 7134 ft | 272 kts | 317° |
| 2026-05-07 16:14 | 35.82908 | 14.31848 | 8163 ft | 273 kts | 313° |
| 2026-05-07 16:14 | 35.84261 | 14.30182 | 9096 ft | 277 kts | 310° |
| 2026-05-07 16:14 | 35.85652 | 14.28504 | 10036 ft | 282 kts | 311° |
| 2026-05-07 16:14 | 35.87103 | 14.26800 | 10731 ft | 295 kts | 311° |
| 2026-05-07 16:15 | 35.88643 | 14.25014 | 11241 ft | 313 kts | 312° |
| 2026-05-07 16:15 | 35.90290 | 14.23126 | 11676 ft | 332 kts | 313° |
| 2026-05-07 16:15 | 35.92184 | 14.21433 | 11771 ft | 355 kts | 329° |
| 2026-05-07 16:15 | 35.94634 | 14.20585 | 11781 ft | 382 kts | 350° |
| 2026-05-07 16:16 | 35.97368 | 14.20555 | 11789 ft | 400 kts | 355° |
| 2026-05-07 16:16 | 36.00172 | 14.20548 | 11802 ft | 406 kts | 355° |
| 2026-05-07 16:16 | 36.03010 | 14.20533 | 11830 ft | 409 kts | 356° |
| 2026-05-07 16:16 | 36.05852 | 14.20991 | 11847 ft | 414 kts | 7° |
| 2026-05-07 16:17 | 36.08686 | 14.21638 | 11842 ft | 414 kts | 6° |
| 2026-05-07 16:17 | 36.11522 | 14.22279 | 11843 ft | 414 kts | 6° |
| 2026-05-07 16:17 | 36.14355 | 14.22919 | 11840 ft | 414 kts | 6° |
| 2026-05-07 16:17 | 36.17180 | 14.23556 | 11836 ft | 414 kts | 6° |
| 2026-05-07 16:18 | 36.19982 | 14.24190 | 11840 ft | 414 kts | 6° |
| 2026-05-07 16:18 | 36.22813 | 14.24830 | 11841 ft | 414 kts | 6° |
| 2026-05-07 16:18 | 36.25644 | 14.25470 | 11836 ft | 414 kts | 6° |
| 2026-05-07 16:18 | 36.28501 | 14.26117 | 12356 ft | 417 kts | 6° |
| 2026-05-07 16:19 | 36.31356 | 14.26763 | 13140 ft | 418 kts | 6° |
| 2026-05-07 16:19 | 36.34237 | 14.27416 | 13712 ft | 424 kts | 6° |
| 2026-05-07 16:19 | 36.37143 | 14.28075 | 13816 ft | 425 kts | 6° |
| 2026-05-07 16:19 | 36.40047 | 14.28735 | 13835 ft | 425 kts | 6° |
| 2026-05-07 16:20 | 36.42914 | 14.29387 | 13838 ft | 425 kts | 6° |
| 2026-05-07 16:20 | 36.45828 | 14.30050 | 13844 ft | 425 kts | 6° |
| 2026-05-07 16:20 | 36.48734 | 14.30711 | 13844 ft | 425 kts | 6° |
| 2026-05-07 16:20 | 36.51648 | 14.31373 | 13847 ft | 425 kts | 6° |
| 2026-05-07 16:21 | 36.54553 | 14.32033 | 13845 ft | 425 kts | 6° |
| 2026-05-07 16:21 | 36.57465 | 14.32696 | 13842 ft | 425 kts | 6° |
| 2026-05-07 16:21 | 36.60377 | 14.33359 | 13846 ft | 425 kts | 6° |
| 2026-05-07 16:21 | 36.63283 | 14.34021 | 13842 ft | 425 kts | 6° |
| 2026-05-07 16:22 | 36.66157 | 14.34676 | 13842 ft | 425 kts | 6° |
| 2026-05-07 16:22 | 36.69064 | 14.35339 | 13845 ft | 425 kts | 6° |
| 2026-05-07 16:22 | 36.71979 | 14.36005 | 13845 ft | 425 kts | 7° |
| 2026-05-07 16:22 | 36.74893 | 14.36671 | 13848 ft | 426 kts | 7° |
| 2026-05-07 16:23 | 36.77805 | 14.37336 | 13850 ft | 426 kts | 7° |
| 2026-05-07 16:23 | 36.80714 | 14.38002 | 13844 ft | 426 kts | 7° |
| 2026-05-07 16:23 | 36.83629 | 14.38672 | 13851 ft | 426 kts | 7° |
| 2026-05-07 16:23 | 36.86449 | 14.39862 | 13843 ft | 432 kts | 25° |
| 2026-05-07 16:24 | 36.88939 | 14.41903 | 13859 ft | 435 kts | 34° |
| 2026-05-07 16:24 | 36.91374 | 14.44131 | 13857 ft | 436 kts | 34° |
| 2026-05-07 16:24 | 36.93811 | 14.46393 | 13855 ft | 435 kts | 35° |
| 2026-05-07 16:24 | 36.96231 | 14.48664 | 13861 ft | 435 kts | 35° |
| 2026-05-07 16:25 | 36.97021 | 14.49409 | 13857 ft | 436 kts | 35° |
| 2026-05-07 16:25 | 36.99431 | 14.51684 | 13814 ft | 428 kts | 35° |
| 2026-05-07 16:25 | 37.01768 | 14.53893 | 13725 ft | 411 kts | 35° |
| 2026-05-07 16:25 | 37.03981 | 14.55987 | 13868 ft | 388 kts | 35° |
| 2026-05-07 16:26 | 37.06057 | 14.57953 | 13859 ft | 373 kts | 35° |
| 2026-05-07 16:26 | 37.08093 | 14.59883 | 13701 ft | 362 kts | 35° |
| 2026-05-07 16:26 | 37.10089 | 14.61776 | 13298 ft | 358 kts | 35° |
| 2026-05-07 16:26 | 37.11423 | 14.63042 | 13005 ft | 354 kts | 35° |
| 2026-05-07 16:27 | 37.13984 | 14.65473 | 12471 ft | 343 kts | 36° |
| 2026-05-07 16:27 | 37.15863 | 14.67259 | 12083 ft | 336 kts | 36° |
| 2026-05-07 16:27 | 37.17783 | 14.68863 | 11542 ft | 331 kts | 21° |
| 2026-05-07 16:27 | 37.20010 | 14.69413 | 10791 ft | 327 kts | 352° |
| 2026-05-07 16:28 | 37.22196 | 14.68995 | 10200 ft | 321 kts | 348° |
| 2026-05-07 16:28 | 37.24408 | 14.68655 | 9564 ft | 319 kts | 350° |
| 2026-05-07 16:28 | 37.26615 | 14.68336 | 8842 ft | 319 kts | 351° |
| 2026-05-07 16:28 | 37.28808 | 14.68029 | 8203 ft | 316 kts | 351° |
| 2026-05-07 16:29 | 37.30864 | 14.67359 | 7854 ft | 295 kts | 326° |
| 2026-05-07 16:29 | 37.32234 | 14.65684 | 7725 ft | 262 kts | 294° |
| 2026-05-07 16:29 | 37.32713 | 14.63624 | 7587 ft | 235 kts | 267° |
| 2026-05-07 16:29 | 37.32629 | 14.61690 | 7520 ft | 210 kts | 262° |
| 2026-05-07 16:30 | 37.32525 | 14.59958 | 7475 ft | 196 kts | 261° |
| 2026-05-07 16:30 | 37.32405 | 14.58287 | 7433 ft | 189 kts | 259° |
| 2026-05-07 16:30 | 37.32281 | 14.56668 | 7318 ft | 184 kts | 259° |
| 2026-05-07 16:30 | 37.32152 | 14.55068 | 7209 ft | 184 kts | 260° |
| 2026-05-07 16:31 | 37.32018 | 14.53467 | 7118 ft | 184 kts | 259° |
| 2026-05-07 16:31 | 37.31881 | 14.51867 | 7024 ft | 184 kts | 258° |
| 2026-05-07 16:31 | 37.31741 | 14.50270 | 6939 ft | 184 kts | 259° |
| 2026-05-07 16:31 | 37.31735 | 14.48664 | 6812 ft | 188 kts | 282° |
| 2026-05-07 16:32 | 37.32494 | 14.47307 | 6726 ft | 199 kts | 319° |
| 2026-05-07 16:32 | 37.33783 | 14.46680 | 6670 ft | 208 kts | 355° |
| 2026-05-07 16:32 | 37.35154 | 14.47124 | 6510 ft | 206 kts | 34° |
| 2026-05-07 16:32 | 37.36072 | 14.48452 | 6441 ft | 202 kts | 69° |
| 2026-05-07 16:33 | 37.36658 | 14.50085 | 6469 ft | 208 kts | 68° |
| 2026-05-07 16:33 | 37.37291 | 14.51724 | 6460 ft | 209 kts | 67° |
| 2026-05-07 16:33 | 37.37942 | 14.53357 | 6466 ft | 209 kts | 66° |
| 2026-05-07 16:33 | 37.38602 | 14.54985 | 6474 ft | 209 kts | 66° |
| 2026-05-07 16:34 | 37.39254 | 14.56578 | 6470 ft | 203 kts | 65° |
| 2026-05-07 16:34 | 37.39896 | 14.58128 | 6366 ft | 201 kts | 66° |
| 2026-05-07 16:34 | 37.40552 | 14.59708 | 6260 ft | 205 kts | 66° |
| 2026-05-07 16:34 | 37.41215 | 14.61304 | 6134 ft | 205 kts | 66° |
| 2026-05-07 16:35 | 37.41877 | 14.62892 | 6003 ft | 204 kts | 65° |
| 2026-05-07 16:35 | 37.42443 | 14.64507 | 5875 ft | 199 kts | 75° |
| 2026-05-07 16:35 | 37.42840 | 14.66164 | 5755 ft | 197 kts | 79° |
| 2026-05-07 16:35 | 37.43145 | 14.67808 | 5628 ft | 194 kts | 82° |
| 2026-05-07 16:36 | 37.43393 | 14.69468 | 5490 ft | 192 kts | 84° |
| 2026-05-07 16:36 | 37.43599 | 14.71129 | 5244 ft | 191 kts | 85° |
| 2026-05-07 16:36 | 37.43777 | 14.72777 | 5009 ft | 188 kts | 85° |
| 2026-05-07 16:36 | 37.43936 | 14.74398 | 4776 ft | 186 kts | 85° |
| 2026-05-07 16:37 | 37.44085 | 14.75998 | 4528 ft | 183 kts | 85° |
| 2026-05-07 16:37 | 37.44227 | 14.77579 | 4281 ft | 181 kts | 85° |
| 2026-05-07 16:37 | 37.44362 | 14.79146 | 4046 ft | 179 kts | 85° |
| 2026-05-07 16:37 | 37.44495 | 14.80695 | 3824 ft | 177 kts | 85° |
| 2026-05-07 16:38 | 37.44623 | 14.82207 | 3588 ft | 174 kts | 85° |
| 2026-05-07 16:38 | 37.44750 | 14.83705 | 3364 ft | 171 kts | 86° |
| 2026-05-07 16:38 | 37.44876 | 14.85196 | 3148 ft | 171 kts | 85° |
| 2026-05-07 16:38 | 37.44999 | 14.86675 | 2914 ft | 169 kts | 84° |
| 2026-05-07 16:39 | 37.45123 | 14.88142 | 2696 ft | 168 kts | 84° |
| 2026-05-07 16:39 | 37.45247 | 14.89603 | 2469 ft | 167 kts | 86° |
| 2026-05-07 16:39 | 37.45368 | 14.91046 | 2265 ft | 165 kts | 85° |
| 2026-05-07 16:39 | 37.45487 | 14.92480 | 2034 ft | 164 kts | 84° |
| 2026-05-07 16:40 | 37.45601 | 14.93826 | 1846 ft | 148 kts | 85° |
| 2026-05-07 16:40 | 37.45708 | 14.95105 | 1639 ft | 147 kts | 84° |
| 2026-05-07 16:40 | 37.45816 | 14.96396 | 1427 ft | 148 kts | 85° |
| 2026-05-07 16:40 | 37.45921 | 14.97642 | 1258 ft | 138 kts | 84° |
| 2026-05-07 16:41 | 37.46022 | 14.98844 | 1068 ft | 139 kts | 84° |
| 2026-05-07 16:41 | 37.46123 | 15.00050 | 935 ft | 138 kts | 84° |
| 2026-05-07 16:41 | 37.46221 | 15.01238 | 761 ft | 135 kts | 82° |
| 2026-05-07 16:41 | 37.46323 | 15.02416 | 564 ft | 137 kts | 80° |
| 2026-05-07 16:42 | 37.46416 | 15.03576 | 406 ft | 136 kts | 79° |
| 2026-05-07 16:42 | 37.46520 | 15.04797 | 215 ft | 142 kts | 80° |
| 2026-05-07 16:42 | 37.46622 | 15.05990 | 51 ft | 128 kts | 81° |
| 2026-05-07 16:42 | 37.46703 | 15.06914 | 39 ft | 74 kts | 83° |
| 2026-05-07 16:43 | 37.46734 | 15.07294 | 35 ft | 14 kts | 83° |
| 2026-05-07 16:43 | 37.46757 | 15.07512 | 34 ft | 35 kts | 78° |
| 2026-05-07 16:43 | 37.46859 | 15.07777 | 32 ft | 25 kts | 52° |
| 2026-05-07 16:43 | 37.46936 | 15.07769 | 32 ft | 12 kts | 285° |
| 2026-05-07 16:44 | 37.46932 | 15.07668 | 34 ft | 12 kts | 263° |
| 2026-05-07 16:44 | 37.46922 | 15.07558 | 35 ft | 14 kts | 264° |
| 2026-05-07 16:44 | 37.46912 | 15.07430 | 35 ft | 16 kts | 265° |
| 2026-05-07 16:44 | 37.46897 | 15.07267 | 36 ft | 21 kts | 263° |
| 2026-05-07 16:45 | 37.46880 | 15.07059 | 35 ft | 26 kts | 264° |
| 2026-05-07 16:45 | 37.46876 | 15.06870 | 33 ft | 12 kts | 309° |
| 2026-05-07 16:45 | 37.46939 | 15.06862 | 32 ft | 9 kts | 9° |
| 2026-05-07 16:45 | 37.46954 | 15.06861 | 32 ft | 0 kts | 353° |